createdAt,value
2022-09-16T00:00:35.105Z,2.00
2022-09-16T00:11:00.850Z,2.67
2022-09-16T00:21:06.913Z,2.13
2022-09-16T00:31:09.038Z,2.70
2022-09-16T00:41:20.435Z,2.67
2022-09-16T00:51:25.473Z,1.50
2022-09-16T01:01:28.316Z,2.20
2022-09-16T01:11:30.441Z,4.88
2022-09-16T01:21:38.945Z,2.13
2022-09-16T01:32:18.152Z,0.73
2022-09-16T01:52:49.630Z,2.63
2022-09-16T02:02:59.350Z,1.30
2022-09-16T02:13:12.860Z,1.20
2022-09-16T02:23:22.307Z,0.93
2022-09-16T02:33:31.898Z,1.10
2022-09-16T02:43:34.097Z,1.23
2022-09-16T02:53:59.208Z,1.52
2022-09-16T03:04:01.604Z,5.70
2022-09-16T03:14:25.002Z,2.33
2022-09-16T03:24:27.781Z,3.10
2022-09-16T03:34:35.520Z,1.40
2022-09-16T03:44:40.390Z,1.00
2022-09-16T03:54:42.499Z,1.70
2022-09-16T04:04:44.668Z,0.90
2022-09-16T04:14:46.759Z,0.70
2022-09-16T04:24:48.845Z,1.00
2022-09-16T04:34:50.989Z,0.82
2022-09-16T04:44:53.175Z,0.98
2022-09-16T04:54:57.427Z,0.70
2022-09-16T05:05:00.412Z,0.95
2022-09-16T05:15:02.528Z,1.00
2022-09-16T05:25:05.096Z,0.98
2022-09-16T05:35:07.452Z,0.88
2022-09-16T05:45:09.807Z,2.08
2022-09-16T05:55:12.200Z,3.03
2022-09-16T06:05:14.367Z,3.00
2022-09-16T06:15:16.749Z,2.75
2022-09-16T06:25:18.824Z,2.17
2022-09-16T06:35:21.233Z,1.35
2022-09-16T06:45:23.395Z,2.08
2022-09-16T06:55:25.550Z,1.38
2022-09-16T07:05:27.808Z,2.05
2022-09-16T07:15:29.940Z,1.70
2022-09-16T07:25:35.701Z,1.40
2022-09-16T07:35:38.296Z,1.30
2022-09-16T07:45:40.438Z,1.00
2022-09-16T07:55:42.571Z,2.03
2022-09-16T08:05:44.783Z,2.30
2022-09-16T08:15:46.917Z,1.05
2022-09-16T08:25:59.963Z,1.70
2022-09-16T08:36:05.364Z,0.80
2022-09-16T08:46:17.955Z,1.20
2022-09-16T08:56:22.976Z,1.42
2022-09-16T09:06:51.752Z,0.90
2022-09-16T09:17:05.036Z,0.85
2022-09-16T09:27:18.140Z,1.23
2022-09-16T09:37:43.356Z,1.33
2022-09-16T09:47:52.190Z,0.95
2022-09-16T09:58:15.779Z,1.50
2022-09-16T10:08:22.911Z,3.90
2022-09-16T10:18:30.096Z,1.75
2022-09-16T10:28:32.473Z,0.98
2022-09-16T10:38:41.252Z,2.25
2022-09-16T10:48:43.973Z,1.60
2022-09-16T10:58:46.651Z,0.90
2022-09-16T11:09:03.974Z,0.70
2022-09-16T11:19:08.674Z,1.25
2022-09-16T11:29:27.236Z,0.75
2022-09-16T11:39:42.489Z,0.80
2022-09-16T11:49:53.654Z,1.20
2022-09-16T12:00:10.885Z,0.93
2022-09-16T12:10:24.576Z,1.33
2022-09-16T12:20:31.903Z,0.80
2022-09-16T12:30:42.155Z,0.93
2022-09-16T12:40:50.463Z,1.05
2022-09-16T12:51:30.465Z,0.60
2022-09-16T13:01:40.483Z,0.70
2022-09-16T13:22:38.301Z,0.50
2022-09-16T13:32:45.187Z,0.50
2022-09-16T13:42:47.838Z,0.65
2022-09-16T13:52:50.744Z,0.70
2022-09-16T14:03:12.254Z,0.82
2022-09-16T14:13:16.455Z,0.60
2022-09-16T14:23:19.686Z,0.60
2022-09-16T14:33:29.829Z,1.15
2022-09-16T14:43:32.206Z,0.70
2022-09-16T14:53:38.574Z,0.90
2022-09-16T15:03:55.734Z,0.80
2022-09-16T15:13:58.873Z,1.05
2022-09-16T15:24:04.123Z,2.42
2022-09-16T15:34:28.041Z,3.90
2022-09-16T15:44:33.849Z,0.77
2022-09-16T15:54:49.921Z,0.82
2022-09-16T16:04:52.679Z,1.20
2022-09-16T16:14:55.158Z,2.85
2022-09-16T16:24:57.439Z,2.63
2022-09-16T16:34:59.553Z,1.25
2022-09-16T16:45:01.969Z,1.70
2022-09-16T16:55:04.753Z,0.90
2022-09-16T17:05:07.840Z,0.95
2022-09-16T17:15:10.006Z,1.08
2022-09-16T17:25:12.502Z,1.88
2022-09-16T17:35:14.572Z,2.08
2022-09-16T17:45:17.043Z,6.10
2022-09-16T17:55:19.249Z,4.53
2022-09-16T18:05:21.486Z,2.03
2022-09-16T18:15:24.818Z,11.98
2022-09-16T18:25:26.940Z,19.00
2022-09-16T18:35:29.251Z,4.15
2022-09-16T18:45:32.318Z,2.90
2022-09-16T18:55:34.423Z,2.10
2022-09-16T19:05:36.548Z,4.43
2022-09-16T19:15:38.622Z,7.15
2022-09-16T19:25:41.205Z,6.93
2022-09-16T19:35:43.314Z,6.30
2022-09-16T19:45:45.500Z,10.63
2022-09-16T19:55:47.606Z,7.53
2022-09-16T20:05:50.171Z,5.03
2022-09-16T20:15:52.352Z,3.33
2022-09-16T20:25:59.337Z,1.27
2022-09-16T20:36:10.071Z,2.45
2022-09-16T20:46:17.539Z,2.80
2022-09-16T20:56:19.964Z,1.45
2022-09-16T21:06:23.020Z,1.20
2022-09-16T21:16:27.290Z,2.55
2022-09-16T21:26:31.751Z,3.90
2022-09-16T21:36:35.500Z,3.80
2022-09-16T21:46:43.273Z,4.53
2022-09-16T21:56:45.520Z,2.27
2022-09-16T22:10:10.830Z,2.60
2022-09-16T22:20:12.966Z,3.15
2022-09-16T22:30:15.093Z,3.03
2022-09-16T22:40:17.317Z,4.85
2022-09-16T22:50:19.590Z,4.03
2022-09-16T23:00:21.672Z,2.05
2022-09-16T23:10:23.842Z,2.33
2022-09-16T23:20:25.940Z,2.22
2022-09-16T23:30:28.380Z,2.53
2022-09-16T23:40:32.050Z,2.05
2022-09-16T23:50:34.784Z,2.75
